أريحا, الأردن

10:22 PM EEST on ابریل 26, 2015 (GMT +0300)
jordan | | Change Station
CLOSE
Current Station
Personal Weather Stations
Location: Balqa, BALQA
Elevation: -780 ft
Nearby Weather Stations

Elev -780 ft 31.81 °N, 35.64 °E | Updated 51 seconds ago

Clear
صافية
78.1 °F
Feels Like 78 °F
N
2.7
ريح متغير ريح from جنوب

هذا اليوم
High -- | Low -- °F
--% Chance of Precip.
Yesterday
High -- | Low -- °F
Precip. -- في
5:57 AM 7:14 PM
الربع الاول, 58% visible
الضغط 29.95 في
وضوح الرؤية -9999.0 أميال
سحابات
مؤشر الحرارة 78 °F
نقطة الندى 47 °F
الرطوبة 33%
Rainfall 0.00 في
عمق الثلج Not available.
الأشعة فوق البنفسجية Not available.
Pollen Not available.
جودة الهواء Not available.
Flu Activity Not available.
METAR LLBG 261920Z VRB01KT CAVOK 18/09 Q1014 NOSIG

More Conditions Fewer Conditions

الضغط 29.95 في
وضوح الرؤية -9999.0 أميال
سحابات
مؤشر الحرارة 78 °F
نقطة الندى 47 °F
الرطوبة 33%
Rainfall 0.00 في
عمق الثلج Not available.
الأشعة فوق البنفسجية Not available.
Pollen Not available.
جودة الهواء Not available.
Flu Activity Not available.
METAR LLBG 261920Z VRB01KT CAVOK 18/09 Q1014 NOSIG

More Conditions Fewer Conditions

10-Day Weather Forecast

Almanac

علم الفلك

Apr. 26, 2015 Rise Set
Actual Time
Civil Twilight
Nautical Twilight
Astronomical Twilight
قمر
Length Of Visible Light
طول الیوم
Tomorrow will be .
, % of the Moon is Illuminated

Today's Extremes

Country Highs Country Lows

Community

WunderPhotos

Upload Photos

1,817,097 photos uploaded!

WunderBlogs® & News

Nearby

جودة الهواء

  جودة الهواء AQ Index Pollutant
Not available.

عمق الثلج

Station Depth Elevation

Earthquake Activity

City Distance Mag. Time & Date
Minimum magnitude displayed is 2.5.

Coastal Water Temperatures

مكان درجات الحرارة

Stations

Nearby Weather Stations

Station Location الحرارة رياح باردة نقطة الندى الرطوبة ريح Precip. Elev تحديث Type